Time;durP1;ratioP1;P1;durP2;ratioP2;P2;SDS_P1;SDS_P2;PMS_P1;PMS_P2;Temp;Humidity;BMP_temperature;BMP_pressure;BME280_temperature;BME280_humidity;BME280_pressure;Samples;Min_cycle;Max_cycle;Signal;HPM_P1;HPM_P2
2022/02/28 00:01:05;;;;;;;7.22;5.70;;;2.10;99.90;;;;;;5076989;28;20215;-70
2022/02/28 00:03:32;;;;;;;7.60;6.25;;;2.10;99.90;;;;;;5077551;28;20561;-70
2022/02/28 00:05:58;;;;;;;7.50;5.60;;;2.20;99.90;;;;;;5075479;28;20329;-70
2022/02/28 00:08:25;;;;;;;9.25;5.75;;;2.20;99.90;;;;;;5077152;28;20684;-70
2022/02/28 00:10:51;;;;;;;11.13;6.25;;;2.20;99.90;;;;;;5077471;28;20230;-70
2022/02/28 00:13:18;;;;;;;7.90;6.45;;;2.20;99.90;;;;;;5078219;28;20208;-70
2022/02/28 00:15:44;;;;;;;8.32;6.00;;;2.20;99.90;;;;;;5077388;28;20663;-70
2022/02/28 00:18:10;;;;;;;9.70;6.68;;;2.10;99.90;;;;;;5076315;28;20206;-70
2022/02/28 00:20:37;;;;;;;9.90;6.47;;;2.10;99.90;;;;;;5077417;28;20725;-70
2022/02/28 00:23:03;;;;;;;8.10;6.78;;;2.00;99.90;;;;;;5076418;28;20566;-70
2022/02/28 00:25:31;;;;;;;9.77;6.00;;;2.00;99.90;;;;;;5076518;28;20199;-70
2022/02/28 00:27:58;;;;;;;8.35;6.45;;;1.90;99.90;;;;;;5077010;28;20207;-70
2022/02/28 00:30:24;;;;;;;6.97;6.05;;;1.90;99.90;;;;;;5075560;28;20220;-70
2022/02/28 00:32:51;;;;;;;11.07;6.28;;;1.90;99.90;;;;;;5076886;28;20226;-70
2022/02/28 00:35:17;;;;;;;9.35;6.25;;;1.90;99.90;;;;;;5078028;28;20208;-70
2022/02/28 00:37:44;;;;;;;11.05;6.90;;;1.90;99.90;;;;;;5077961;28;20200;-70
2022/02/28 00:40:10;;;;;;;7.28;6.50;;;2.00;99.90;;;;;;5077208;28;20586;-70
2022/02/28 00:42:37;;;;;;;7.65;6.82;;;1.90;99.90;;;;;;5077365;28;20230;-70
2022/02/28 00:45:04;;;;;;;6.90;5.25;;;2.00;99.90;;;;;;5076955;28;20196;-70
2022/02/28 00:47:31;;;;;;;8.63;6.35;;;1.90;99.90;;;;;;5077468;28;20199;-70
2022/02/28 00:49:57;;;;;;;10.50;7.30;;;1.90;99.90;;;;;;5077615;28;20203;-70
2022/02/28 00:52:24;;;;;;;9.13;6.03;;;1.90;99.90;;;;;;5076825;28;20204;-70
2022/02/28 00:54:50;;;;;;;8.13;6.25;;;1.90;99.90;;;;;;5076282;28;20200;-70
2022/02/28 00:57:17;;;;;;;7.75;5.68;;;1.90;99.90;;;;;;5076784;28;20200;-70
2022/02/28 00:59:43;;;;;;;6.60;5.63;;;1.80;99.90;;;;;;5076491;28;20204;-70
2022/02/28 01:02:09;;;;;;;7.88;6.13;;;1.80;99.90;;;;;;5076225;28;20211;-70
2022/02/28 01:04:36;;;;;;;9.48;6.13;;;1.90;99.90;;;;;;5075337;28;20232;-70
2022/02/28 01:07:04;;;;;;;7.38;6.65;;;1.90;99.90;;;;;;5075804;28;20223;-70
2022/02/28 01:09:31;;;;;;;11.02;6.55;;;1.90;99.90;;;;;;5074817;28;20208;-70
2022/02/28 01:11:57;;;;;;;8.02;6.15;;;1.90;99.90;;;;;;5076371;28;20203;-70
2022/02/28 01:14:23;;;;;;;8.52;6.45;;;2.00;99.90;;;;;;5076668;28;20217;-70
2022/02/28 01:16:50;;;;;;;9.68;6.93;;;2.00;99.90;;;;;;5076772;28;20199;-70
2022/02/28 01:19:16;;;;;;;10.25;6.22;;;2.00;99.90;;;;;;5076436;28;20203;-70
2022/02/28 01:21:43;;;;;;;10.57;6.53;;;2.00;99.90;;;;;;5076587;28;20557;-70
2022/02/28 01:24:09;;;;;;;8.90;7.40;;;2.10;99.90;;;;;;5076077;28;20200;-70
2022/02/28 01:26:36;;;;;;;8.05;7.00;;;2.20;99.90;;;;;;5075536;28;20203;-70
2022/02/28 01:29:02;;;;;;;8.88;6.70;;;2.20;99.90;;;;;;5075329;28;20265;-70
2022/02/28 01:31:28;;;;;;;8.60;7.05;;;2.10;99.90;;;;;;5076011;28;20285;-70
2022/02/28 01:33:55;;;;;;;9.15;6.68;;;2.10;99.90;;;;;;5075676;28;20208;-71
2022/02/28 01:36:21;;;;;;;9.40;7.10;;;2.00;99.90;;;;;;5075894;28;20215;-70
2022/02/28 01:38:48;;;;;;;9.88;7.25;;;1.90;99.90;;;;;;5076241;28;20204;-70
2022/02/28 01:41:14;;;;;;;10.43;7.18;;;1.60;99.90;;;;;;5075489;28;20216;-70
2022/02/28 01:43:41;;;;;;;7.45;6.65;;;1.50;99.90;;;;;;5075328;28;20606;-70
2022/02/28 01:46:07;;;;;;;9.05;7.13;;;1.30;99.90;;;;;;5076262;28;20241;-71
2022/02/28 01:48:34;;;;;;;10.40;6.78;;;1.20;99.90;;;;;;5076281;28;20250;-71
2022/02/28 01:51:00;;;;;;;9.73;7.05;;;1.20;99.90;;;;;;5075890;28;20257;-70
2022/02/28 01:53:26;;;;;;;9.55;7.05;;;1.20;99.90;;;;;;5075536;28;20206;-70
2022/02/28 01:55:53;;;;;;;11.13;7.07;;;1.20;99.90;;;;;;5075252;28;20699;-70
2022/02/28 01:58:19;;;;;;;10.50;7.80;;;1.10;99.90;;;;;;5075382;28;20208;-70
2022/02/28 02:00:46;;;;;;;9.82;7.35;;;1.10;99.90;;;;;;5076000;28;20223;-70
2022/02/28 02:03:13;;;;;;;9.55;6.70;;;1.10;99.90;;;;;;5075706;28;20233;-70
2022/02/28 02:05:39;;;;;;;10.90;6.97;;;1.10;99.90;;;;;;5074562;28;20239;-72
2022/02/28 02:08:07;;;;;;;8.85;7.45;;;1.10;99.90;;;;;;5074871;28;20191;-70
2022/02/28 02:10:34;;;;;;;8.07;6.97;;;1.10;99.90;;;;;;5074730;28;20558;-70
2022/02/28 02:13:01;;;;;;;9.85;6.78;;;1.10;99.90;;;;;;5074651;28;20628;-70
2022/02/28 02:15:28;;;;;;;9.55;7.05;;;1.10;99.90;;;;;;5074821;28;20203;-70
2022/02/28 02:17:57;;;;;;;10.05;7.80;;;1.10;99.90;;;;;;5074695;28;20211;-70
2022/02/28 02:20:24;;;;;;;14.52;7.10;;;1.10;99.90;;;;;;5073773;28;20228;-70
2022/02/28 02:23:05;;;;;;;7.75;6.88;;;1.00;99.90;;;;;;5074648;28;20200;-70
2022/02/28 02:25:32;;;;;;;10.93;6.60;;;1.00;99.90;;;;;;5075025;28;20180;-70
2022/02/28 02:27:59;;;;;;;10.43;6.95;;;1.00;99.90;;;;;;5075024;28;20211;-70
2022/02/28 02:30:26;;;;;;;10.98;7.40;;;1.00;99.90;;;;;;5075394;28;20254;-70
2022/02/28 02:32:52;;;;;;;12.18;8.35;;;1.00;99.90;;;;;;5075461;28;20188;-73
2022/02/28 02:35:19;;;;;;;10.75;6.75;;;1.00;99.90;;;;;;5075380;28;20603;-70
2022/02/28 02:37:45;;;;;;;8.10;5.88;;;1.10;99.90;;;;;;5075286;28;20277;-71
2022/02/28 02:40:12;;;;;;;11.57;7.15;;;1.20;99.90;;;;;;5073181;28;20694;-70
2022/02/28 02:42:39;;;;;;;16.13;8.38;;;1.20;99.90;;;;;;5074547;28;20200;-70
2022/02/28 02:45:06;;;;;;;13.00;7.53;;;1.30;99.90;;;;;;5073932;28;20200;-70
2022/02/28 02:47:33;;;;;;;10.82;7.88;;;1.30;99.90;;;;;;5074294;28;20644;-70
2022/02/28 02:49:59;;;;;;;9.75;7.07;;;1.30;99.90;;;;;;5074610;28;20257;-69
2022/02/28 02:52:26;;;;;;;11.35;7.75;;;1.20;99.90;;;;;;5074020;28;20200;-70
2022/02/28 02:54:52;;;;;;;8.65;7.13;;;1.10;99.90;;;;;;5074601;28;20191;-70
2022/02/28 02:57:20;;;;;;;11.45;7.63;;;1.00;99.90;;;;;;5074343;28;20211;-69
2022/02/28 02:59:47;;;;;;;8.05;7.22;;;0.80;99.90;;;;;;5074099;28;20229;-70
2022/02/28 03:02:14;;;;;;;8.32;6.40;;;0.70;99.90;;;;;;5074639;28;20223;-70
2022/02/28 03:04:40;;;;;;;11.07;7.70;;;0.60;99.90;;;;;;5055925;28;20234;-70
2022/02/28 03:07:17;;;;;;;10.10;7.35;;;0.50;99.90;;;;;;5073826;28;20754;-70
2022/02/28 03:09:45;;;;;;;9.18;7.18;;;0.40;99.90;;;;;;5073624;28;20552;-70
2022/02/28 03:12:12;;;;;;;10.00;8.15;;;0.40;99.90;;;;;;5074542;28;20195;-70
2022/02/28 03:14:39;;;;;;;10.70;8.27;;;0.40;99.90;;;;;;5074481;28;20215;-70
2022/02/28 03:17:05;;;;;;;10.00;7.05;;;0.40;99.90;;;;;;5074238;28;20196;-70
2022/02/28 03:19:32;;;;;;;8.68;6.70;;;0.40;99.90;;;;;;5074171;28;20658;-70
2022/02/28 03:21:59;;;;;;;13.75;7.10;;;0.40;99.90;;;;;;5074927;28;20211;-69
2022/02/28 03:24:25;;;;;;;14.10;8.30;;;0.40;99.90;;;;;;5074730;28;20538;-70
2022/02/28 03:26:52;;;;;;;9.48;7.90;;;0.50;99.90;;;;;;5074968;28;20192;-69
2022/02/28 03:29:19;;;;;;;11.32;7.90;;;0.50;99.90;;;;;;5075106;28;20207;-69
2022/02/28 03:31:45;;;;;;;15.13;8.55;;;0.50;99.90;;;;;;5075037;28;20204;-71
2022/02/28 03:34:12;;;;;;;11.90;8.85;;;0.50;99.90;;;;;;5076514;28;20207;-70
2022/02/28 03:36:38;;;;;;;11.23;8.20;;;0.50;99.90;;;;;;5076216;28;20196;-70
2022/02/28 03:39:05;;;;;;;11.20;8.20;;;0.60;99.90;;;;;;5078382;28;20621;-70
2022/02/28 03:41:31;;;;;;;15.70;8.32;;;0.60;99.90;;;;;;5078556;28;20258;-68
2022/02/28 03:43:57;;;;;;;8.98;7.28;;;0.60;99.90;;;;;;5078438;28;20204;-67
2022/02/28 03:46:24;;;;;;;8.45;6.97;;;0.60;99.90;;;;;;5076579;28;20199;-67
2022/02/28 03:48:50;;;;;;;12.98;7.90;;;0.60;99.90;;;;;;5076610;28;20204;-67
2022/02/28 03:51:17;;;;;;;9.32;7.68;;;0.60;99.90;;;;;;5077561;28;20211;-70
2022/02/28 03:53:43;;;;;;;12.35;7.80;;;0.60;99.90;;;;;;5077909;28;20567;-69
2022/02/28 03:56:09;;;;;;;10.43;7.85;;;0.60;99.90;;;;;;5077460;28;20598;-70
2022/02/28 03:58:38;;;;;;;9.02;7.40;;;0.60;99.90;;;;;;5076474;28;20204;-70
2022/02/28 04:01:05;;;;;;;13.13;10.10;;;0.50;99.90;;;;;;5077997;28;20224;-69
2022/02/28 04:03:32;;;;;;;23.23;15.45;;;0.50;99.90;;;;;;5078209;28;20196;-67
2022/02/28 04:05:58;;;;;;;13.27;9.98;;;0.50;99.90;;;;;;5077598;28;20593;-69
2022/02/28 04:08:25;;;;;;;14.00;9.95;;;0.50;99.90;;;;;;5077512;28;20682;-67
2022/02/28 04:10:51;;;;;;;13.45;9.10;;;0.40;99.90;;;;;;5077677;28;20663;-70
2022/02/28 04:13:18;;;;;;;10.65;8.40;;;0.40;99.90;;;;;;5077011;28;20215;-70
2022/02/28 04:15:44;;;;;;;11.55;7.82;;;0.40;99.90;;;;;;5075951;28;20208;-70
2022/02/28 04:18:11;;;;;;;12.00;8.20;;;0.30;99.90;;;;;;5076948;28;20550;-70
2022/02/28 04:20:38;;;;;;;13.32;7.93;;;0.20;99.90;;;;;;5076854;28;20224;-70
2022/02/28 04:23:04;;;;;;;11.02;7.28;;;0.10;99.90;;;;;;5076573;28;20200;-71
2022/02/28 04:25:30;;;;;;;11.82;8.40;;;0.10;99.90;;;;;;5076793;28;20274;-68
2022/02/28 04:27:57;;;;;;;9.70;8.38;;;0.00;99.90;;;;;;5075894;28;20199;-69
2022/02/28 04:30:23;;;;;;;15.38;9.23;;;0.00;99.90;;;;;;5076564;28;20204;-68
2022/02/28 04:32:50;;;;;;;14.82;9.35;;;-0.10;99.90;;;;;;5076418;28;20527;-69
2022/02/28 04:35:16;;;;;;;12.85;8.80;;;-0.10;99.90;;;;;;5076300;28;20196;-69
2022/02/28 04:37:43;;;;;;;12.55;10.00;;;-0.10;99.90;;;;;;5076419;28;20200;-68
2022/02/28 04:40:10;;;;;;;11.73;9.07;;;-0.20;99.90;;;;;;5076757;28;20196;-69
2022/02/28 04:42:36;;;;;;;13.80;9.85;;;-0.20;99.90;;;;;;5076444;28;20623;-68
2022/02/28 04:45:03;;;;;;;19.10;13.20;;;-0.20;99.90;;;;;;5076161;28;20204;-68
2022/02/28 04:47:30;;;;;;;17.92;13.20;;;-0.20;99.90;;;;;;5076781;28;20199;-69
2022/02/28 04:49:57;;;;;;;14.80;11.98;;;-0.20;99.90;;;;;;5074973;28;20424;-69
2022/02/28 04:52:23;;;;;;;16.92;11.68;;;-0.30;99.90;;;;;;5076122;28;20265;-69
2022/02/28 04:54:49;;;;;;;13.07;8.70;;;-0.20;99.90;;;;;;5076009;28;20204;-69
2022/02/28 04:57:16;;;;;;;13.02;7.93;;;-0.30;99.90;;;;;;5076042;28;20273;-68
2022/02/28 04:59:43;;;;;;;10.35;8.10;;;-0.30;99.90;;;;;;5075510;28;20659;-69
2022/02/28 05:02:09;;;;;;;11.35;8.30;;;-0.30;99.90;;;;;;5075597;28;20246;-68
2022/02/28 05:04:35;;;;;;;10.25;8.15;;;-0.30;99.90;;;;;;5075474;28;20224;-69
2022/02/28 05:07:02;;;;;;;17.73;9.38;;;-0.30;99.90;;;;;;5076105;28;20239;-69
2022/02/28 05:09:29;;;;;;;17.60;9.27;;;-0.20;99.90;;;;;;5074474;28;20207;-68
2022/02/28 05:11:55;;;;;;;16.52;10.30;;;-0.30;99.90;;;;;;5076278;28;20204;-68
2022/02/28 05:14:22;;;;;;;17.50;11.00;;;-0.30;99.90;;;;;;5076166;28;20208;-69
2022/02/28 05:16:48;;;;;;;16.13;11.43;;;-0.30;99.90;;;;;;5077480;28;20610;-69
2022/02/28 05:19:14;;;;;;;20.33;12.75;;;-0.30;99.90;;;;;;5077524;28;20208;-69
2022/02/28 05:21:41;;;;;;;22.38;13.05;;;-0.40;99.90;;;;;;5077248;28;20273;-69
2022/02/28 05:24:07;;;;;;;16.77;12.02;;;-0.40;99.90;;;;;;5077177;28;20204;-69
2022/02/28 05:26:34;;;;;;;22.88;11.38;;;-0.40;99.90;;;;;;5076029;28;20207;-69
2022/02/28 05:29:00;;;;;;;14.32;10.43;;;-0.30;99.90;;;;;;5076230;28;20713;-69
2022/02/28 05:31:27;;;;;;;14.10;9.95;;;-0.30;99.90;;;;;;5075735;28;20228;-69
2022/02/28 05:33:53;;;;;;;11.88;8.07;;;-0.30;99.90;;;;;;5075881;28;20257;-69
2022/02/28 05:36:20;;;;;;;12.63;9.85;;;-0.40;99.90;;;;;;5074583;28;20256;-69
2022/02/28 05:38:46;;;;;;;13.80;9.63;;;-0.40;99.90;;;;;;5057458;28;20212;-69
2022/02/28 05:41:12;;;;;;;12.73;8.50;;;-0.40;99.90;;;;;;5075370;28;20238;-69
2022/02/28 05:43:39;;;;;;;15.75;9.68;;;-0.40;99.90;;;;;;5075560;28;20543;-70
2022/02/28 05:46:05;;;;;;;17.40;10.32;;;-0.30;99.90;;;;;;5075439;28;20203;-69
2022/02/28 05:48:32;;;;;;;11.05;9.27;;;-0.30;99.90;;;;;;5073994;28;20677;-70
2022/02/28 05:50:58;;;;;;;16.70;10.05;;;-0.30;99.90;;;;;;5075805;28;20701;-69
2022/02/28 05:53:25;;;;;;;17.08;10.55;;;-0.30;99.90;;;;;;5075703;28;20253;-69
2022/02/28 05:55:51;;;;;;;16.58;9.52;;;-0.30;99.90;;;;;;5073197;28;20570;-69
2022/02/28 05:58:18;;;;;;;13.52;9.23;;;-0.20;99.90;;;;;;5074270;28;20203;-69
2022/02/28 06:00:44;;;;;;;12.70;9.50;;;-0.20;99.90;;;;;;5075446;28;20207;-69
2022/02/28 06:03:10;;;;;;;16.15;10.73;;;-0.20;99.90;;;;;;5074428;28;20200;-69
2022/02/28 06:05:37;;;;;;;18.40;9.93;;;-0.10;99.90;;;;;;5074225;28;20234;-69
2022/02/28 06:08:04;;;;;;;18.02;9.95;;;-0.10;99.90;;;;;;5074270;28;20207;-69
2022/02/28 06:10:30;;;;;;;11.57;9.07;;;-0.10;99.90;;;;;;5074059;28;20215;-69
2022/02/28 06:12:56;;;;;;;14.65;10.15;;;-0.10;99.90;;;;;;5073879;28;20204;-69
2022/02/28 06:15:23;;;;;;;16.50;10.35;;;-0.10;99.90;;;;;;5074173;28;20199;-69
2022/02/28 06:17:49;;;;;;;15.60;11.52;;;-0.10;99.90;;;;;;5074170;28;20211;-70
2022/02/28 06:20:15;;;;;;;15.57;10.43;;;-0.10;99.90;;;;;;5074469;28;20559;-70
2022/02/28 06:22:44;;;;;;;22.27;10.77;;;-0.10;99.90;;;;;;5074308;28;20216;-70
2022/02/28 06:25:11;;;;;;;15.18;11.27;;;-0.10;99.90;;;;;;5074329;28;20204;-70
2022/02/28 06:27:37;;;;;;;17.83;11.10;;;-0.10;99.90;;;;;;5073519;28;20211;-70
2022/02/28 06:30:05;;;;;;;12.48;10.02;;;-0.10;99.90;;;;;;5074392;28;20200;-70
2022/02/28 06:32:32;;;;;;;11.55;9.55;;;-0.10;99.90;;;;;;5074292;28;20672;-70
2022/02/28 06:34:58;;;;;;;15.63;10.75;;;-0.10;99.90;;;;;;5073943;28;20200;-70
2022/02/28 06:37:24;;;;;;;16.85;11.02;;;-0.10;99.90;;;;;;5072898;28;20208;-70
2022/02/28 06:39:51;;;;;;;14.60;10.52;;;-0.10;99.90;;;;;;5074185;28;20207;-70
2022/02/28 06:42:17;;;;;;;11.63;9.65;;;0.00;99.90;;;;;;5074090;28;20224;-70
2022/02/28 06:44:44;;;;;;;16.50;10.52;;;-0.10;99.90;;;;;;5073768;28;20648;-72
2022/02/28 06:47:10;;;;;;;11.38;9.43;;;0.00;99.90;;;;;;5074249;28;20200;-70
2022/02/28 06:49:36;;;;;;;13.48;8.55;;;0.00;99.90;;;;;;5073533;28;20204;-70
2022/02/28 06:52:04;;;;;;;16.92;9.57;;;0.10;99.90;;;;;;5073944;28;20223;-70
2022/02/28 06:54:30;;;;;;;21.23;10.77;;;0.20;99.90;;;;;;5073290;28;20679;-70
2022/02/28 06:56:57;;;;;;;13.75;10.27;;;0.20;99.90;;;;;;5073732;28;20281;-70
2022/02/28 06:59:24;;;;;;;11.50;9.15;;;0.20;99.90;;;;;;5074255;28;20199;-70
2022/02/28 07:01:50;;;;;;;16.27;10.07;;;0.30;99.90;;;;;;5073809;28;20601;-70
2022/02/28 07:04:17;;;;;;;14.18;10.50;;;0.30;99.90;;;;;;5073170;28;20228;-70
2022/02/28 07:06:43;;;;;;;17.42;8.95;;;0.40;99.90;;;;;;5074012;28;20222;-70
2022/02/28 07:09:09;;;;;;;14.48;9.40;;;0.40;99.90;;;;;;5077820;28;20191;-70
2022/02/28 07:11:36;;;;;;;14.65;10.50;;;0.40;99.90;;;;;;5077949;28;20204;-70
2022/02/28 07:14:04;;;;;;;17.23;9.30;;;0.30;99.90;;;;;;5078324;28;20200;-69
2022/02/28 07:16:31;;;;;;;11.85;9.55;;;0.30;99.90;;;;;;5077797;28;20724;-70
2022/02/28 07:18:58;;;;;;;13.90;9.90;;;0.50;99.90;;;;;;5076293;28;20253;-70
2022/02/28 07:21:24;;;;;;;13.77;10.35;;;0.60;99.90;;;;;;5077918;28;20211;-70
2022/02/28 07:23:51;;;;;;;17.92;9.65;;;0.70;99.90;;;;;;5077570;28;20205;-70
2022/02/28 07:26:18;;;;;;;15.40;10.40;;;0.70;99.90;;;;;;5077790;28;20222;-70
2022/02/28 07:28:44;;;;;;;13.38;10.30;;;0.70;99.90;;;;;;5077871;28;20207;-70
2022/02/28 07:31:10;;;;;;;14.45;10.30;;;0.80;99.90;;;;;;5076148;28;20211;-70
2022/02/28 07:33:37;;;;;;;19.50;11.52;;;0.80;99.90;;;;;;5077437;28;21134;-72
2022/02/28 07:36:06;;;;;;;14.23;10.15;;;0.80;99.90;;;;;;5077170;28;20215;-70
2022/02/28 07:38:33;;;;;;;16.95;10.55;;;0.90;99.90;;;;;;5077461;28;20616;-70
2022/02/28 07:40:59;;;;;;;12.10;9.70;;;0.90;99.90;;;;;;5077487;28;20200;-71
2022/02/28 07:43:26;;;;;;;15.85;10.23;;;1.00;99.90;;;;;;5077442;28;20620;-71
2022/02/28 07:45:52;;;;;;;14.07;9.70;;;1.20;99.90;;;;;;5077173;28;20264;-71
2022/02/28 07:48:18;;;;;;;15.20;9.80;;;1.30;99.90;;;;;;5077226;28;20256;-71
2022/02/28 07:50:45;;;;;;;17.08;10.63;;;1.40;99.90;;;;;;5077078;28;20206;-71
2022/02/28 07:53:11;;;;;;;16.33;10.10;;;1.50;99.90;;;;;;5075541;28;20220;-71
2022/02/28 07:55:38;;;;;;;17.38;10.18;;;1.60;99.90;;;;;;5076266;28;20199;-71
2022/02/28 07:58:04;;;;;;;14.85;10.43;;;1.60;99.90;;;;;;5076271;28;20200;-70
2022/02/28 08:00:32;;;;;;;16.98;9.85;;;1.80;99.90;;;;;;5076392;28;20257;-71
2022/02/28 08:02:59;;;;;;;14.98;10.02;;;1.80;99.90;;;;;;5076303;28;20204;-71
2022/02/28 08:05:26;;;;;;;12.68;9.23;;;1.90;99.90;;;;;;5076141;28;20236;-71
2022/02/28 08:07:53;;;;;;;15.45;9.35;;;2.00;99.90;;;;;;5076506;28;20210;-71
2022/02/28 08:10:19;;;;;;;15.45;8.68;;;2.00;99.90;;;;;;5076512;28;20200;-70
2022/02/28 08:12:45;;;;;;;15.35;9.15;;;2.00;99.90;;;;;;5076343;28;20227;-70
2022/02/28 08:15:12;;;;;;;14.98;10.15;;;2.20;99.90;;;;;;5076512;28;20192;-71
2022/02/28 08:17:39;;;;;;;16.38;10.20;;;2.30;99.90;;;;;;5076371;28;20563;-71
2022/02/28 08:20:06;;;;;;;12.18;9.15;;;2.40;99.90;;;;;;5075562;28;20199;-71
2022/02/28 08:22:33;;;;;;;14.10;9.70;;;2.50;99.90;;;;;;5076507;28;20214;-70
2022/02/28 08:24:59;;;;;;;12.60;9.50;;;2.70;99.90;;;;;;5075821;28;20288;-70
2022/02/28 08:27:27;;;;;;;12.60;10.07;;;2.70;99.90;;;;;;5076187;28;20207;-71
2022/02/28 08:29:53;;;;;;;15.45;10.65;;;2.80;99.90;;;;;;5075729;28;20215;-71
2022/02/28 08:32:20;;;;;;;16.70;12.32;;;2.90;99.90;;;;;;5075602;28;20713;-71
2022/02/28 08:34:46;;;;;;;15.07;10.88;;;2.90;99.90;;;;;;5074309;28;20211;-71
2022/02/28 08:37:13;;;;;;;12.68;9.90;;;3.10;99.90;;;;;;5075859;28;20207;-71
2022/02/28 08:39:39;;;;;;;14.32;10.25;;;3.20;99.90;;;;;;5075581;28;20577;-70
2022/02/28 08:42:06;;;;;;;19.83;9.75;;;3.30;99.90;;;;;;5075758;28;20200;-70
2022/02/28 08:44:32;;;;;;;17.77;11.00;;;3.30;99.90;;;;;;5075842;28;20243;-70
2022/02/28 08:46:59;;;;;;;12.07;9.77;;;3.50;99.90;;;;;;5076020;28;20264;-70
2022/02/28 08:49:25;;;;;;;13.57;10.52;;;3.60;99.90;;;;;;5075629;28;20210;-70
2022/02/28 08:51:54;;;;;;;15.50;10.63;;;3.70;99.90;;;;;;5074857;28;20759;-71
2022/02/28 08:54:21;;;;;;;14.38;10.50;;;3.70;99.90;;;;;;5074754;28;20199;-71
2022/02/28 08:56:48;;;;;;;14.13;10.93;;;3.80;99.90;;;;;;5075378;28;20196;-71
2022/02/28 08:59:14;;;;;;;12.30;10.05;;;4.00;99.90;;;;;;5075421;28;20256;-71
2022/02/28 09:01:41;;;;;;;11.13;8.98;;;4.00;99.90;;;;;;5075349;28;20207;-71
2022/02/28 09:04:07;;;;;;;12.18;9.73;;;4.10;99.90;;;;;;5074033;28;20211;-72
2022/02/28 09:06:33;;;;;;;13.52;10.63;;;4.30;99.90;;;;;;5075269;28;20262;-72
2022/02/28 09:09:00;;;;;;;12.65;9.90;;;4.40;99.90;;;;;;5074583;28;20559;-72
2022/02/28 09:11:26;;;;;;;15.77;10.48;;;4.40;99.90;;;;;;5074518;28;20204;-72
2022/02/28 09:13:53;;;;;;;10.73;9.32;;;4.50;99.90;;;;;;5073702;28;20625;-71
2022/02/28 09:16:21;;;;;;;11.80;9.75;;;4.60;99.90;;;;;;5075214;28;20208;-71
2022/02/28 09:18:47;;;;;;;14.43;11.27;;;4.70;99.90;;;;;;5075041;28;20204;-70
2022/02/28 09:21:13;;;;;;;14.25;9.85;;;4.80;99.90;;;;;;5075107;28;20200;-69
2022/02/28 09:23:40;;;;;;;19.48;10.98;;;4.80;99.90;;;;;;5074898;28;20219;-70
2022/02/28 09:26:06;;;;;;;11.82;10.63;;;4.80;99.90;;;;;;5073862;28;20204;-70
2022/02/28 09:28:33;;;;;;;15.18;11.48;;;4.80;99.90;;;;;;5074869;28;20195;-71
2022/02/28 09:30:59;;;;;;;15.50;10.90;;;5.00;99.90;;;;;;5073596;28;20204;-70
2022/02/28 09:33:26;;;;;;;11.80;10.38;;;5.10;99.90;;;;;;5074814;28;20222;-71
2022/02/28 09:35:53;;;;;;;12.65;11.25;;;5.00;99.90;;;;;;5074996;28;20201;-71
2022/02/28 09:38:20;;;;;;;13.90;11.60;;;5.00;99.90;;;;;;5074914;28;20600;-70
2022/02/28 09:40:49;;;;;;;14.68;12.07;;;5.20;99.90;;;;;;5074522;28;20199;-70
2022/02/28 09:43:16;;;;;;;13.43;10.68;;;5.20;99.90;;;;;;5074591;28;20207;-70
2022/02/28 09:45:43;;;;;;;12.52;10.50;;;5.10;99.90;;;;;;5074584;28;20269;-69
2022/02/28 09:48:10;;;;;;;13.88;10.10;;;5.40;99.90;;;;;;5073173;28;20207;-69
2022/02/28 09:50:36;;;;;;;13.50;10.27;;;5.60;99.90;;;;;;5074474;28;20196;-70
2022/02/28 09:53:06;;;;;;;12.77;11.40;;;5.70;99.90;;;;;;5074112;28;20561;-70
2022/02/28 09:55:32;;;;;;;13.57;10.60;;;5.80;99.90;;;;;;5074223;28;20211;-70
2022/02/28 09:57:59;;;;;;;12.48;11.15;;;5.90;99.90;;;;;;5074190;28;20200;-70
2022/02/28 10:00:26;;;;;;;12.02;10.32;;;6.00;99.90;;;;;;5074486;28;20204;-70
2022/02/28 10:02:55;;;;;;;20.08;12.07;;;6.00;99.90;;;;;;5074179;28;20207;-69
2022/02/28 10:05:22;;;;;;;12.88;11.50;;;6.00;99.90;;;;;;5073398;28;20239;-70
2022/02/28 10:07:59;;;;;;;17.13;12.18;;;6.20;99.90;;;;;;5073742;28;20693;-70
2022/02/28 10:10:27;;;;;;;12.43;10.98;;;6.20;99.90;;;;;;5073605;28;20199;-71
2022/02/28 10:12:55;;;;;;;11.90;10.75;;;6.40;99.90;;;;;;5073988;28;20223;-70
2022/02/28 10:15:26;;;;;;;13.23;11.90;;;6.20;99.90;;;;;;5073619;28;20211;-70
2022/02/28 10:17:57;;;;;;;16.00;12.10;;;6.30;99.90;;;;;;5073741;28;20540;-70
2022/02/28 10:20:28;;;;;;;13.15;11.93;;;6.20;99.90;;;;;;5073183;28;20257;-70
2022/02/28 10:22:57;;;;;;;15.77;12.43;;;6.40;99.90;;;;;;5073224;28;20238;-70
2022/02/28 10:25:29;;;;;;;13.68;11.90;;;6.70;99.90;;;;;;5073527;28;20672;-70
2022/02/28 10:28:19;;;;;;;11.90;10.70;;;6.60;99.90;;;;;;5073974;28;20204;-70
2022/02/28 10:31:00;;;;;;;12.20;10.90;;;6.80;99.90;;;;;;5073777;28;20245;-70
2022/02/28 10:33:34;;;;;;;13.43;11.40;;;7.00;99.90;;;;;;5073943;28;20223;-70
2022/02/28 10:36:13;;;;;;;15.93;12.27;;;7.10;99.90;;;;;;5074138;28;20191;-70
2022/02/28 10:38:47;;;;;;;14.90;11.75;;;6.90;99.90;;;;;;5074104;28;20207;-70
2022/02/28 10:41:27;;;;;;;11.65;10.63;;;7.00;99.90;;;;;;5073415;28;20188;-70
2022/02/28 10:43:56;;;;;;;13.73;12.23;;;7.30;99.90;;;;;;5073195;28;20632;-70
2022/02/28 10:46:31;;;;;;;14.80;11.65;;;7.50;99.90;;;;;;5073524;28;20218;-70
2022/02/28 10:48:58;;;;;;;14.95;11.68;;;7.70;99.90;;;;;;5073141;28;20566;-70
2022/02/28 10:51:25;;;;;;;13.18;11.60;;;7.90;99.90;;;;;;5073180;28;20728;-70
2022/02/28 10:54:13;;;;;;;14.40;12.23;;;7.80;99.90;;;;;;5072992;28;20675;-72
2022/02/28 10:57:10;;;;;;;12.10;11.00;;;8.00;99.90;;;;;;5073117;28;20210;-70
2022/02/28 10:59:43;;;;;;;13.05;10.70;;;8.00;99.90;;;;;;5072093;28;20205;-70
2022/02/28 11:02:22;;;;;;;11.52;10.32;;;8.00;99.90;;;;;;5072926;28;20204;-70
2022/02/28 11:05:13;;;;;;;18.10;10.60;;;8.20;99.90;;;;;;5073055;28;20305;-71
2022/02/28 11:07:42;;;;;;;12.05;10.85;;;8.50;99.90;;;;;;5073442;28;20220;-69
2022/02/28 11:10:10;;;;;;;13.07;11.95;;;8.70;99.90;;;;;;5071616;28;20684;-72
2022/02/28 11:12:37;;;;;;;14.20;12.80;;;8.60;99.90;;;;;;5073172;28;20580;-70
2022/02/28 11:15:07;;;;;;;14.30;12.98;;;9.30;99.90;;;;;;5073255;28;20204;-71
2022/02/28 11:17:36;;;;;;;13.90;12.20;;;9.70;99.90;;;;;;5072703;28;21286;-73
2022/02/28 11:20:08;;;;;;;14.25;12.93;;;10.00;99.90;;;;;;5072874;28;20230;-71
2022/02/28 11:22:36;;;;;;;15.00;13.60;;;10.30;99.90;;;;;;5072638;28;20188;-72
2022/02/28 11:25:04;;;;;;;15.88;13.93;;;9.90;99.90;;;;;;5072677;28;20584;-72
2022/02/28 11:27:31;;;;;;;13.90;12.38;;;10.00;99.90;;;;;;5073510;28;20572;-72
2022/02/28 11:30:06;;;;;;;17.00;15.40;;;10.20;99.90;;;;;;5073295;28;20310;-72
2022/02/28 11:32:34;;;;;;;14.93;13.53;;;10.30;99.90;;;;;;5072651;28;20260;-72
2022/02/28 11:35:34;;;;;;;20.07;12.60;;;10.80;99.90;;;;;;5072555;28;20581;-71
2022/02/28 11:38:05;;;;;;;12.67;11.53;;;10.60;99.90;;;;;;5072655;28;20580;-71
2022/02/28 11:40:34;;;;;;;15.00;13.65;;;10.50;99.90;;;;;;5072881;28;20579;-71
2022/02/28 11:43:15;;;;;;;14.10;12.90;;;10.80;99.90;;;;;;5073084;28;20204;-71
2022/02/28 11:45:58;;;;;;;15.03;13.77;;;11.10;99.90;;;;;;5073094;28;20600;-70
2022/02/28 11:48:24;;;;;;;14.57;13.20;;;11.50;99.90;;;;;;5072905;28;20585;-70
2022/02/28 11:50:53;;;;;;;14.33;13.13;;;11.70;99.90;;;;;;5072919;28;21024;-71
2022/02/28 11:53:53;;;;;;;14.00;12.70;;;12.10;99.90;;;;;;5073351;28;21247;-71
2022/02/28 11:56:23;;;;;;;13.77;12.47;;;11.90;99.90;;;;;;5076464;28;20598;-71
2022/02/28 11:59:00;;;;;;;13.23;12.20;;;11.50;99.90;;;;;;5076258;28;20702;-71
2022/02/28 12:01:49;;;;;;;14.30;13.00;;;11.80;99.90;;;;;;5076829;28;20581;-71
2022/02/28 12:04:19;;;;;;;15.30;13.80;;;12.10;99.90;;;;;;5076282;28;20664;-71
2022/02/28 12:07:04;;;;;;;14.30;13.00;;;12.40;99.90;;;;;;5075458;28;20676;-72
2022/02/28 12:09:33;;;;;;;14.50;13.40;;;11.80;99.90;;;;;;5077161;28;20614;-71
2022/02/28 12:12:27;;;;;;;15.20;14.00;;;12.50;99.90;;;;;;5076189;28;21049;-72
2022/02/28 12:14:57;;;;;;;15.20;13.90;;;12.70;99.90;;;;;;5075444;28;20614;-71
2022/02/28 12:20:22;;;;;;;13.13;12.13;;;12.80;99.90;;;;;;5075960;28;20610;-70
2022/02/28 12:22:54;;;;;;;12.90;11.90;;;12.60;99.90;;;;;;5076043;28;20662;-71
2022/02/28 12:25:49;;;;;;;13.30;12.20;;;12.80;99.90;;;;;;5076170;28;20617;-71
2022/02/28 12:28:21;;;;;;;14.57;13.50;;;13.70;99.90;;;;;;5075737;28;20632;-71
2022/02/28 12:30:57;;;;;;;15.13;13.73;;;13.80;99.90;;;;;;5076135;28;20616;-71
2022/02/28 12:33:25;;;;;;;14.30;12.97;;;13.90;99.90;;;;;;5076186;28;20629;-71
2022/02/28 12:35:58;;;;;;;15.13;13.67;;;13.50;99.90;;;;;;5075729;28;20605;-71
2022/02/28 12:38:34;;;;;;;14.43;13.23;;;13.70;99.90;;;;;;5075984;28;20613;-70
2022/02/28 12:41:05;;;;;;;14.30;13.20;;;13.30;99.90;;;;;;5075539;28;20584;-70
2022/02/28 12:43:33;;;;;;;15.67;13.07;;;13.30;99.90;;;;;;5075434;28;20652;-71
2022/02/28 12:46:02;;;;;;;13.90;12.60;;;13.60;99.90;;;;;;5075522;28;20621;-72
2022/02/28 12:48:30;;;;;;;13.07;12.00;;;13.60;99.90;;;;;;5075224;28;21210;-72